This is the latest recevied weather packets stored in our database for station/object SP9INZ-13. If no packets are shown the sender has not sent any weather packets the latest 10 day(s).
| Time | Temp. | Humidity | Pressure | Rain* | Wind** | Luminosity | Snow |
|---|---|---|---|---|---|---|---|
| 1777574846 | 12.78° C | 38% | 1036.5 hPa | - | - | - | - |
| 1777573888 | 13.33° C | 37% | 1036.4 hPa | - | - | - | - |
| 1777572930 | 13.89° C | 36% | 1036 hPa | - | - | - | - |
| 1777571972 | 13.89° C | 35% | 1036 hPa | - | - | - | - |
| 1777571014 | 13.33° C | 35% | 1036.3 hPa | - | - | - | - |
| 1777570055 | 12.78° C | 34% | 1036.7 hPa | - | - | - | - |
| 1777569098 | 14.44° C | 31% | 1036.2 hPa | - | - | - | - |
| 1777568139 | 15° C | 28% | 1036.2 hPa | - | - | - | - |
| 1777567182 | 17.78° C | 23% | 1035 hPa | - | - | - | - |
| 1777566233 | 16.11° C | 24% | 1035.9 hPa | - | - | - | - |
| 1777566223 | 16.11° C | 24% | 1035.9 hPa | - | - | - | - |
| 1777565265 | 17.22° C | 24% | 1035.3 hPa | - | - | - | - |
| 1777564308 | 16.67° C | 24% | 1035.4 hPa | - | - | - | - |
| 1777563349 | 16.67° C | 24% | 1035.6 hPa | - | - | - | - |
| 1777562391 | 15.56° C | 24% | 1036.1 hPa | - | - | - | - |
| 1777561434 | 18.33° C | 22% | 1034.7 hPa | - | - | - | - |
| 1777560475 | 16.67° C | 22% | 1035.7 hPa | - | - | - | - |
| 1777559517 | 16.11° C | 22% | 1036.5 hPa | - | - | - | - |
| 1777558560 | 16.67° C | 19% | 1036.5 hPa | - | - | - | - |
| 1777557602 | 16.67° C | 21% | 1036.3 hPa | - | - | - | - |
| 1777556644 | 16.11° C | 21% | 1036.6 hPa | - | - | - | - |
| 1777555686 | 17.78° C | 23% | 1035.3 hPa | - | - | - | - |
| 1777554727 | 16.67° C | 22% | 1036.3 hPa | - | - | - | - |
| 1777553773 | 15.56° C | 24% | 1037.3 hPa | - | - | - | - |
| 1777552812 | 15.56° C | 24% | 1037.1 hPa | - | - | - | - |
* Rain since midnight (hover to see other rain measurements)
** Current wind speed in m/s (hover to see current wind gust speed)